メインページ
METAR-TAF:

METAR-TAF

空港 :

Dease Lake, ブリティッシュコロンビア州, カナダ

緯度: 58-25-20N, 経度: 130-01-53W, 海抜: 803m

現時点の気象観測

当レポートは56分前の01:08(UTC)に作成
西/南西の風 3kt
気温 -11°C
湿度 85%
気圧 1007 hPa
視程: 2.4km
高度2600ftの曇り
小雪

METAR: CYDL 210108Z AUTO 24003KT 1 1/2SM -SN OVC026 M11/M13 A2974 RMK VIS VRB 1 1/4-2 1/4 SLP123

時間: 18:04 (02:04 UTC)

予報

当レポートは2時間26分前の23:38(UTC)に作成
予報は21日の 00時(UTC)から 21日の 03時(UTC)まで有効
変向風 3kt
視程: 1.6km
高度2000ftの
小雪
21日の 00時(UTC)から 21日の 03時(UTC)まで一時的に
視程: 4.8km
高度3000ftの曇り
小雪

TAF: CYDL 202338Z 2100/2103 VRB03KT 1SM -SN VV020 TEMPO 2100/2103 3SM -SN OVC030 RMK FCST BASED ON AUTO OBS. NXT FCST WILL BE ISSUED AT 211645Z

4,000以上の空港の気象観測と天気予報(METAR報とTAF報)

利用可能な観測所は地図上に黄色い丸と赤い丸で示す。

丸の上にカーソルを重ねると観測所名を参照できる。

次にクリックすると気象観測と天気予報を参照できる。

マップの切り替え:黒色「×」印の緑ボタンをクリックして拡大、「-」印の緑ボタンをクリックして縮小、緑色の三角印をクリックして隣りの地図に切り替え


METAR-TAF: